Time;durP1;ratioP1;P1;durP2;ratioP2;P2;SDS_P1;SDS_P2;PMS_P1;PMS_P2;Temp;Humidity;BMP_temperature;BMP_pressure;BME280_temperature;BME280_humidity;BME280_pressure;Samples;Min_cycle;Max_cycle;Signal;HPM_P1;HPM_P2
2023/04/05 00:00:37;;;;;;;22.42;13.25;;;0.20;99.90;;;;;;5008591;28;20209;-84
2023/04/05 00:03:05;;;;;;;22.92;14.75;;;0.30;99.90;;;;;;5011232;28;20624;-82
2023/04/05 00:05:33;;;;;;;27.10;16.10;;;0.10;99.90;;;;;;5008896;28;20228;-81
2023/04/05 00:08:02;;;;;;;25.67;16.25;;;0.00;99.90;;;;;;5004189;28;20209;-81
2023/04/05 00:10:30;;;;;;;27.85;18.13;;;0.00;99.90;;;;;;4997258;28;20227;-84
2023/04/05 00:12:57;;;;;;;25.95;15.70;;;0.00;99.90;;;;;;5005830;28;20209;-82
2023/04/05 00:15:26;;;;;;;25.83;14.23;;;-0.20;99.90;;;;;;4987270;28;20197;-82
2023/04/05 00:17:54;;;;;;;18.63;13.48;;;-0.30;99.90;;;;;;5012020;28;20397;-83
2023/04/05 00:20:21;;;;;;;25.67;16.98;;;-0.60;99.90;;;;;;5002269;28;20766;-81
2023/04/05 00:22:49;;;;;;;19.75;13.45;;;-0.50;99.90;;;;;;5003803;28;20272;-81
2023/04/05 00:25:17;;;;;;;26.55;15.35;;;-0.50;99.90;;;;;;5002195;28;20217;-83
2023/04/05 00:27:45;;;;;;;23.42;15.23;;;-0.60;99.90;;;;;;5011667;28;20242;-80
2023/04/05 00:30:19;;;;;;;29.30;14.25;;;-0.50;99.90;;;;;;5006026;28;20229;-82
2023/04/05 00:32:49;;;;;;;18.63;13.18;;;-0.50;99.90;;;;;;5016342;28;20212;-82
2023/04/05 00:35:16;;;;;;;26.48;15.32;;;-0.50;99.90;;;;;;5001189;28;20217;-82
2023/04/05 00:37:43;;;;;;;27.23;15.88;;;-0.40;99.90;;;;;;4998684;28;20272;-80
2023/04/05 00:40:11;;;;;;;28.55;15.32;;;-0.40;99.90;;;;;;5002062;28;20237;-80
2023/04/05 00:42:37;;;;;;;25.75;13.88;;;-0.40;99.90;;;;;;5018514;28;20264;-81
2023/04/05 00:45:05;;;;;;;18.20;11.07;;;-0.40;99.90;;;;;;5019736;28;20208;-80
2023/04/05 00:47:32;;;;;;;18.92;11.88;;;-0.60;99.90;;;;;;5005207;28;20206;-81
2023/04/05 00:49:59;;;;;;;22.63;14.63;;;-0.60;99.90;;;;;;4999071;28;20541;-79
2023/04/05 00:52:29;;;;;;;16.20;12.70;;;-0.90;99.90;;;;;;4990840;28;20201;-81
2023/04/05 00:54:57;;;;;;;22.42;13.75;;;-0.70;99.90;;;;;;5020103;28;20280;-81
2023/04/05 00:57:25;;;;;;;24.80;13.02;;;-0.60;99.90;;;;;;4998710;28;21430;-83
2023/04/05 00:59:52;;;;;;;19.05;11.15;;;-0.50;99.90;;;;;;5000933;28;20750;-84
2023/04/05 01:02:32;;;;;;;18.58;12.90;;;-0.50;99.90;;;;;;4980549;28;20209;-83
2023/04/05 01:05:13;;;;;;;19.33;14.70;;;-0.50;99.90;;;;;;5005189;28;20265;-82
2023/04/05 01:07:58;;;;;;;18.42;12.13;;;-0.50;99.90;;;;;;5002108;28;20730;-84
2023/04/05 01:10:33;;;;;;;24.23;14.27;;;-0.60;99.90;;;;;;4976165;28;20225;-84
2023/04/05 01:13:01;;;;;;;19.35;12.65;;;-0.60;99.90;;;;;;4999258;28;20205;-84
2023/04/05 01:15:28;;;;;;;22.02;13.05;;;-0.60;99.90;;;;;;4998573;28;20214;-82
2023/04/05 01:17:56;;;;;;;19.75;11.52;;;-0.50;99.90;;;;;;5011563;28;20263;-85
2023/04/05 01:20:24;;;;;;;23.38;14.00;;;-0.70;99.90;;;;;;4986555;28;20217;-84
2023/04/05 01:23:21;;;;;;;21.50;12.95;;;-0.60;99.90;;;;;;5006268;28;20301;-83
2023/04/05 01:26:07;;;;;;;25.63;12.68;;;-0.70;99.90;;;;;;5006420;28;20383;-84
2023/04/05 01:29:16;;;;;;;19.10;11.90;;;-0.50;99.90;;;;;;4989274;28;20264;-83
2023/04/05 01:32:22;;;;;;;20.10;10.88;;;-0.60;99.90;;;;;;4986982;28;20245;-82
2023/04/05 01:35:03;;;;;;;20.65;12.55;;;-0.80;99.90;;;;;;4968348;28;20209;-82
2023/04/05 01:37:34;;;;;;;16.58;10.82;;;-0.70;99.90;;;;;;5007015;28;20205;-80
2023/04/05 01:40:01;;;;;;;14.52;10.88;;;-0.90;99.90;;;;;;4980050;28;20659;-82
2023/04/05 01:42:28;;;;;;;17.38;11.00;;;-0.90;99.90;;;;;;5002742;28;20205;-82
2023/04/05 01:44:56;;;;;;;20.75;14.00;;;-0.80;99.90;;;;;;4976155;28;20209;-80
2023/04/05 01:47:23;;;;;;;13.32;11.05;;;-0.70;99.90;;;;;;5014789;28;20201;-80
2023/04/05 01:49:50;;;;;;;19.35;13.77;;;-0.70;99.90;;;;;;5008544;28;20249;-81
2023/04/05 01:52:17;;;;;;;16.63;11.32;;;-0.70;99.90;;;;;;5006605;28;20271;-81
2023/04/05 01:54:44;;;;;;;23.33;12.57;;;-0.80;99.90;;;;;;5001164;28;20202;-82
2023/04/05 01:57:11;;;;;;;19.33;10.18;;;-0.90;99.90;;;;;;5001175;28;20204;-82
2023/04/05 01:59:38;;;;;;;20.35;11.95;;;-0.80;99.90;;;;;;4988269;28;20440;-82
2023/04/05 02:02:05;;;;;;;21.20;12.55;;;-0.90;99.90;;;;;;5011330;28;20209;-82
2023/04/05 02:04:32;;;;;;;21.45;12.30;;;-0.90;99.90;;;;;;4997162;28;20205;-82
2023/04/05 02:06:59;;;;;;;19.17;11.75;;;-0.80;99.90;;;;;;5002702;28;20256;-82
2023/04/05 02:09:27;;;;;;;20.17;10.57;;;-0.80;99.90;;;;;;4995932;28;20228;-82
2023/04/05 02:11:53;;;;;;;23.67;12.13;;;-1.00;99.90;;;;;;5013702;28;20268;-81
2023/04/05 02:14:21;;;;;;;21.25;12.07;;;-1.00;99.90;;;;;;5019976;28;20252;-81
2023/04/05 02:16:47;;;;;;;19.13;11.35;;;-0.90;99.90;;;;;;5014279;28;20486;-81
2023/04/05 02:19:14;;;;;;;16.30;11.13;;;-0.80;99.90;;;;;;5003161;28;20268;-81
2023/04/05 02:21:41;;;;;;;20.98;11.55;;;-0.70;99.90;;;;;;4989692;28;20341;-81
2023/04/05 02:24:08;;;;;;;17.65;12.13;;;-0.60;99.90;;;;;;4994596;28;20264;-84
2023/04/05 02:26:35;;;;;;;21.63;12.65;;;-0.70;99.90;;;;;;5001124;28;20198;-81
2023/04/05 02:29:02;;;;;;;19.05;11.20;;;-0.80;99.90;;;;;;5010648;28;20234;-80
2023/04/05 02:31:29;;;;;;;20.45;10.45;;;-0.90;99.90;;;;;;5020771;28;20211;-81
2023/04/05 02:33:59;;;;;;;22.08;11.85;;;-0.80;99.90;;;;;;5015233;28;20216;-81
2023/04/05 02:36:29;;;;;;;18.90;11.90;;;-0.70;99.90;;;;;;5000323;28;20201;-84
2023/04/05 02:38:56;;;;;;;16.90;12.18;;;-0.60;99.90;;;;;;5007711;28;20213;-81
2023/04/05 02:41:24;;;;;;;20.92;13.30;;;-0.50;99.90;;;;;;5010429;28;20579;-82
2023/04/05 02:43:51;;;;;;;20.45;10.75;;;-0.60;99.90;;;;;;4993563;28;20209;-81
2023/04/05 02:46:18;;;;;;;22.45;12.93;;;-0.80;99.90;;;;;;5008203;28;20206;-82
2023/04/05 02:48:46;;;;;;;16.25;11.85;;;-0.80;99.90;;;;;;4988504;28;20205;-81
2023/04/05 02:51:12;;;;;;;16.88;11.20;;;-0.70;99.90;;;;;;5001797;28;20256;-83
2023/04/05 02:53:39;;;;;;;18.58;14.32;;;-0.80;99.90;;;;;;5010487;28;20201;-80
2023/04/05 02:56:07;;;;;;;21.55;14.18;;;-0.90;99.90;;;;;;5011626;28;20216;-80
2023/04/05 02:58:34;;;;;;;24.67;14.52;;;-1.00;99.90;;;;;;5018112;28;20256;-80
2023/04/05 03:01:06;;;;;;;18.90;12.20;;;-0.90;99.90;;;;;;5015822;28;20540;-82
2023/04/05 03:03:33;;;;;;;22.05;11.75;;;-0.80;99.90;;;;;;5008312;28;20205;-81
2023/04/05 03:06:09;;;;;;;16.52;11.80;;;-0.80;99.90;;;;;;4976983;28;20489;-82
2023/04/05 03:08:37;;;;;;;18.60;11.60;;;-0.80;99.90;;;;;;5004285;28;20542;-83
2023/04/05 03:11:05;;;;;;;16.17;13.25;;;-0.70;99.90;;;;;;5005792;28;20210;-80
2023/04/05 03:13:32;;;;;;;20.95;12.60;;;-0.50;99.90;;;;;;5010054;28;20284;-81
2023/04/05 03:15:59;;;;;;;20.83;12.63;;;-0.40;99.90;;;;;;4998343;28;20210;-82
2023/04/05 03:18:28;;;;;;;18.40;11.60;;;-0.40;99.90;;;;;;5012668;28;20205;-83
2023/04/05 03:20:56;;;;;;;18.83;11.40;;;-0.30;99.90;;;;;;5008569;28;20249;-80
2023/04/05 03:23:28;;;;;;;20.67;13.07;;;-0.10;99.90;;;;;;5004833;28;20256;-82
2023/04/05 03:26:00;;;;;;;21.20;11.63;;;-0.20;99.90;;;;;;5014214;28;20210;-81
2023/04/05 03:28:28;;;;;;;16.17;9.95;;;0.00;99.90;;;;;;4991939;28;20213;-82
2023/04/05 03:30:55;;;;;;;22.27;12.05;;;0.00;99.90;;;;;;4995832;28;20237;-81
2023/04/05 03:33:23;;;;;;;18.90;10.05;;;-0.10;99.90;;;;;;5002680;28;20575;-79
2023/04/05 03:35:49;;;;;;;21.10;11.85;;;0.00;99.90;;;;;;5002336;28;20429;-80
2023/04/05 03:38:16;;;;;;;17.70;11.18;;;0.10;99.90;;;;;;5004003;28;20206;-79
2023/04/05 03:40:43;;;;;;;17.08;11.52;;;0.10;99.90;;;;;;5003976;28;20257;-83
2023/04/05 03:43:10;;;;;;;19.67;11.95;;;0.10;99.90;;;;;;5003684;28;20397;-82
2023/04/05 03:45:37;;;;;;;18.15;11.32;;;-0.10;99.90;;;;;;4984240;28;20206;-80
2023/04/05 03:48:04;;;;;;;18.88;11.88;;;-0.20;99.90;;;;;;5007370;28;20232;-80
2023/04/05 03:50:31;;;;;;;22.33;10.05;;;-0.30;99.90;;;;;;5009045;28;20233;-81
2023/04/05 03:52:58;;;;;;;20.55;13.35;;;-0.30;99.90;;;;;;5009669;28;20210;-81
2023/04/05 03:55:25;;;;;;;21.50;11.45;;;-0.50;99.90;;;;;;4985566;28;20276;-85
2023/04/05 03:57:53;;;;;;;24.92;12.20;;;-0.70;99.90;;;;;;4988656;28;20775;-81
2023/04/05 04:00:22;;;;;;;14.00;12.02;;;-0.70;99.90;;;;;;4998657;28;20225;-80
2023/04/05 04:02:51;;;;;;;17.05;10.82;;;-0.70;99.90;;;;;;5006478;28;20201;-83
2023/04/05 04:05:19;;;;;;;20.13;12.07;;;-0.80;99.90;;;;;;4990710;28;20201;-81
2023/04/05 04:07:47;;;;;;;15.85;11.02;;;-1.00;99.90;;;;;;4973432;28;20249;-81
2023/04/05 04:10:18;;;;;;;25.67;12.80;;;-1.10;99.90;;;;;;5003183;28;20545;-80
2023/04/05 04:12:45;;;;;;;17.35;11.27;;;-1.10;99.90;;;;;;5006904;28;20559;-83
2023/04/05 04:15:12;;;;;;;18.92;11.45;;;-0.90;99.90;;;;;;5011910;28;20202;-81
2023/04/05 04:17:39;;;;;;;17.52;12.68;;;-0.80;99.90;;;;;;5001468;28;20202;-81
2023/04/05 04:20:09;;;;;;;19.52;13.32;;;-0.70;99.90;;;;;;5003616;28;20281;-81
2023/04/05 04:22:39;;;;;;;14.40;11.82;;;-0.70;99.90;;;;;;5005952;28;20527;-79
2023/04/05 04:25:09;;;;;;;17.75;11.57;;;-0.70;99.90;;;;;;5022345;28;20220;-85
2023/04/05 04:27:40;;;;;;;17.85;12.00;;;-0.90;99.90;;;;;;5021843;28;20189;-82
2023/04/05 04:30:10;;;;;;;24.23;11.98;;;-0.90;99.90;;;;;;5008779;28;20229;-80
2023/04/05 04:32:50;;;;;;;19.13;13.00;;;-1.00;99.90;;;;;;4998902;28;20202;-81
2023/04/05 04:35:28;;;;;;;20.13;12.45;;;-1.00;99.90;;;;;;4986561;28;20752;-87
2023/04/05 04:38:00;;;;;;;20.65;12.75;;;-0.80;99.90;;;;;;5005227;28;20213;-83
2023/04/05 04:40:38;;;;;;;14.90;11.45;;;-0.80;99.90;;;;;;5001464;28;20205;-82
2023/04/05 04:43:16;;;;;;;20.33;13.38;;;-0.60;99.90;;;;;;4986949;28;20209;-83
2023/04/05 04:45:47;;;;;;;21.27;12.13;;;-0.70;99.90;;;;;;4987933;28;20237;-81
2023/04/05 04:48:15;;;;;;;21.88;13.55;;;-1.00;99.90;;;;;;5004130;28;20205;-83
2023/04/05 04:50:43;;;;;;;18.73;13.50;;;-0.80;99.90;;;;;;5014290;28;20244;-82
2023/04/05 04:53:10;;;;;;;20.58;13.70;;;-0.70;99.90;;;;;;4991990;28;20214;-83
2023/04/05 04:55:43;;;;;;;18.77;11.32;;;-0.70;99.90;;;;;;5017068;28;20266;-81
2023/04/05 04:58:12;;;;;;;19.20;11.48;;;-0.60;99.90;;;;;;4989981;28;20206;-83
2023/04/05 05:00:43;;;;;;;17.65;11.00;;;-0.30;99.90;;;;;;5010724;28;20241;-82
2023/04/05 05:03:12;;;;;;;22.88;11.55;;;0.00;99.90;;;;;;4994558;28;20217;-81
2023/04/05 05:05:47;;;;;;;16.90;12.13;;;0.10;99.90;;;;;;4998870;28;20556;-81
2023/04/05 05:08:15;;;;;;;23.77;11.93;;;0.50;99.90;;;;;;5007770;28;20280;-83
2023/04/05 05:10:44;;;;;;;22.25;11.55;;;0.80;99.90;;;;;;4999935;28;20233;-85
2023/04/05 05:13:12;;;;;;;16.60;9.57;;;1.10;99.90;;;;;;4995894;28;20201;-81
2023/04/05 05:15:40;;;;;;;15.93;10.95;;;1.00;99.90;;;;;;5010200;28;20214;-83
2023/04/05 05:18:07;;;;;;;15.30;10.50;;;1.20;99.90;;;;;;5007179;28;20213;-81
2023/04/05 05:20:36;;;;;;;16.63;10.77;;;1.50;99.90;;;;;;5006948;28;20216;-81
2023/04/05 05:23:04;;;;;;;17.95;11.00;;;1.60;99.90;;;;;;5000676;28;20646;-81
2023/04/05 05:25:31;;;;;;;14.45;10.80;;;1.70;99.90;;;;;;4997091;28;20301;-83
2023/04/05 05:27:58;;;;;;;14.40;10.88;;;1.70;99.90;;;;;;5004579;28;20596;-82
2023/04/05 05:30:26;;;;;;;20.85;11.52;;;1.90;99.90;;;;;;4981678;28;20313;-81
2023/04/05 05:32:53;;;;;;;12.85;8.00;;;2.00;99.90;;;;;;4986604;28;20708;-81
2023/04/05 05:35:20;;;;;;;15.82;9.88;;;1.90;99.90;;;;;;5009041;28;20381;-87
2023/04/05 05:37:47;;;;;;;17.00;10.55;;;2.20;99.90;;;;;;4993391;28;20207;-82
2023/04/05 05:40:15;;;;;;;13.20;8.25;;;2.60;99.90;;;;;;4998113;28;20224;-81
2023/04/05 05:42:42;;;;;;;16.10;8.93;;;3.00;99.90;;;;;;4983629;28;20208;-81
2023/04/05 05:45:10;;;;;;;16.15;10.20;;;3.30;99.90;;;;;;4999758;28;20828;-82
2023/04/05 05:47:36;;;;;;;15.50;9.13;;;3.50;99.90;;;;;;5006009;28;20212;-83
2023/04/05 05:50:05;;;;;;;12.60;10.05;;;4.00;99.90;;;;;;4992014;28;20564;-81
2023/04/05 05:52:32;;;;;;;14.55;9.85;;;4.20;99.90;;;;;;4999605;28;20209;-81
2023/04/05 05:54:59;;;;;;;15.82;8.88;;;4.20;99.90;;;;;;4999324;28;20216;-81
2023/04/05 05:57:26;;;;;;;17.35;8.43;;;4.30;99.90;;;;;;5014123;28;20280;-81
2023/04/05 05:59:53;;;;;;;16.67;9.93;;;4.20;99.90;;;;;;5000789;28;20749;-84
2023/04/05 06:02:22;;;;;;;18.30;12.07;;;4.00;99.90;;;;;;5007659;28;20214;-81
2023/04/05 06:04:49;;;;;;;18.77;10.18;;;3.80;99.90;;;;;;5000502;28;20251;-82
2023/04/05 06:07:16;;;;;;;17.88;9.75;;;3.90;99.90;;;;;;5007539;28;20216;-80
2023/04/05 06:09:44;;;;;;;18.95;9.32;;;4.10;99.90;;;;;;5010467;28;20227;-81
2023/04/05 06:12:11;;;;;;;16.90;9.88;;;4.30;99.90;;;;;;4999940;28;20208;-81
2023/04/05 06:14:38;;;;;;;21.92;8.60;;;4.40;99.90;;;;;;4999230;28;20213;-81
2023/04/05 06:17:05;;;;;;;14.38;8.55;;;4.40;99.90;;;;;;5007457;28;20229;-81
2023/04/05 06:19:31;;;;;;;20.83;12.25;;;4.60;99.90;;;;;;5006098;28;20225;-81
2023/04/05 06:21:59;;;;;;;12.35;9.45;;;5.10;99.90;;;;;;4974971;28;20205;-81
2023/04/05 06:24:30;;;;;;;14.55;9.52;;;5.40;99.90;;;;;;5006898;28;20411;-81
2023/04/05 06:26:58;;;;;;;23.52;11.38;;;5.20;99.90;;;;;;4995538;28;20206;-83
2023/04/05 06:29:25;;;;;;;15.75;10.35;;;5.40;99.90;;;;;;5006240;28;20453;-81
2023/04/05 06:31:53;;;;;;;12.68;9.15;;;5.70;99.90;;;;;;5001560;28;20419;-81
2023/04/05 06:34:20;;;;;;;15.45;9.68;;;6.60;99.90;;;;;;5007321;28;20219;-80
2023/04/05 06:36:47;;;;;;;16.65;10.65;;;8.00;99.90;;;;;;5005651;28;20206;-80
2023/04/05 06:39:15;;;;;;;13.00;8.77;;;8.60;99.90;;;;;;4998851;28;20202;-79
2023/04/05 06:41:42;;;;;;;16.08;9.68;;;10.20;99.90;;;;;;5010648;28;20208;-80
2023/04/05 06:44:09;;;;;;;17.88;9.80;;;10.30;99.90;;;;;;5010589;28;20429;-81
2023/04/05 06:46:36;;;;;;;15.32;9.00;;;9.70;99.90;;;;;;5002202;28;20224;-81
2023/04/05 06:49:03;;;;;;;14.20;9.90;;;8.20;99.90;;;;;;4985831;28;20264;-79
2023/04/05 06:51:30;;;;;;;13.02;9.25;;;8.00;99.90;;;;;;5010361;28;20241;-80
2023/04/05 06:53:57;;;;;;;17.40;10.98;;;8.00;99.90;;;;;;4992659;28;20410;-81
2023/04/05 06:56:23;;;;;;;19.60;10.43;;;7.90;99.90;;;;;;5014049;28;20386;-79
2023/04/05 06:58:52;;;;;;;13.85;9.43;;;7.70;99.90;;;;;;4997791;28;20236;-78
2023/04/05 07:01:18;;;;;;;18.00;9.63;;;7.90;99.90;;;;;;5004352;28;20214;-79
2023/04/05 07:03:45;;;;;;;17.75;9.85;;;8.00;99.90;;;;;;5008289;28;20213;-80
2023/04/05 07:06:13;;;;;;;19.33;10.95;;;8.50;99.90;;;;;;5007019;28;20272;-78
2023/04/05 07:08:39;;;;;;;18.30;9.70;;;8.50;99.90;;;;;;5009629;28;20220;-79
2023/04/05 07:11:07;;;;;;;14.90;10.15;;;9.20;99.90;;;;;;5012620;28;20417;-79
2023/04/05 07:13:34;;;;;;;16.40;9.93;;;8.90;99.90;;;;;;5007765;28;20245;-80
2023/04/05 07:16:02;;;;;;;18.75;9.75;;;8.40;99.90;;;;;;5013817;28;20259;-77
2023/04/05 07:18:29;;;;;;;17.00;10.38;;;8.00;99.90;;;;;;5002655;28;20211;-80
2023/04/05 07:20:59;;;;;;;14.55;9.70;;;7.80;99.90;;;;;;5013944;28;20209;-79
2023/04/05 07:23:26;;;;;;;18.27;13.25;;;7.60;99.90;;;;;;5010905;28;20251;-77
2023/04/05 07:25:57;;;;;;;14.27;9.52;;;7.30;99.90;;;;;;5003364;28;20269;-78
2023/04/05 07:28:25;;;;;;;17.15;10.32;;;7.40;99.90;;;;;;4996595;28;20210;-78
2023/04/05 07:30:52;;;;;;;22.05;9.35;;;7.30;99.90;;;;;;5002092;28;20371;-79
2023/04/05 07:33:19;;;;;;;15.93;9.38;;;7.00;99.90;;;;;;5007298;28;20213;-77
2023/04/05 07:35:54;;;;;;;22.90;9.55;;;6.60;99.90;;;;;;5007656;28;20260;-78
2023/04/05 07:38:21;;;;;;;17.30;10.65;;;6.40;99.90;;;;;;5013578;28;20245;-78
2023/04/05 07:40:49;;;;;;;14.63;9.93;;;6.00;99.90;;;;;;4994950;28;20209;-77
2023/04/05 07:43:17;;;;;;;14.10;8.57;;;6.00;99.90;;;;;;5002975;28;20222;-79
2023/04/05 07:45:44;;;;;;;16.35;10.73;;;6.10;99.90;;;;;;5014308;28;20671;-78
2023/04/05 07:48:11;;;;;;;16.33;10.18;;;6.10;99.90;;;;;;5008292;28;20506;-79
2023/04/05 07:50:39;;;;;;;17.00;10.20;;;6.00;99.90;;;;;;5006880;28;20229;-77
2023/04/05 07:53:07;;;;;;;20.88;10.93;;;5.90;99.90;;;;;;5009479;28;20235;-78
2023/04/05 07:55:37;;;;;;;17.80;9.82;;;5.50;99.90;;;;;;4998338;28;20276;-80
2023/04/05 07:58:03;;;;;;;14.80;7.93;;;5.30;99.90;;;;;;4973565;28;20337;-79
2023/04/05 08:00:30;;;;;;;17.83;9.75;;;4.80;99.90;;;;;;5005510;28;20239;-78
2023/04/05 08:02:58;;;;;;;15.95;8.07;;;4.70;99.90;;;;;;4992278;28;20223;-79
2023/04/05 08:05:28;;;;;;;12.32;7.95;;;4.40;99.90;;;;;;5006889;28;20546;-78
2023/04/05 08:07:56;;;;;;;13.13;8.20;;;4.10;99.90;;;;;;5001000;28;20207;-78
2023/04/05 08:10:24;;;;;;;10.77;7.35;;;4.00;99.90;;;;;;5005945;28;20493;-80
2023/04/05 08:12:52;;;;;;;10.13;7.28;;;4.00;99.90;;;;;;5000732;28;20261;-80
2023/04/05 08:15:19;;;;;;;15.38;8.13;;;4.10;99.90;;;;;;5011756;28;20206;-79
2023/04/05 08:17:46;;;;;;;9.40;7.70;;;4.20;99.90;;;;;;5000800;28;20256;-80
2023/04/05 08:20:13;;;;;;;10.63;7.63;;;4.60;99.90;;;;;;4995463;28;20204;-78
2023/04/05 08:22:40;;;;;;;7.95;6.22;;;4.90;99.90;;;;;;5000747;28;20224;-80
2023/04/05 08:25:07;;;;;;;12.27;7.35;;;5.40;99.90;;;;;;5013880;28;20232;-79
2023/04/05 08:27:35;;;;;;;10.35;7.07;;;5.90;99.90;;;;;;5005119;28;20517;-79
2023/04/05 08:30:04;;;;;;;8.88;7.03;;;5.70;99.90;;;;;;4997815;28;20581;-77
2023/04/05 08:32:33;;;;;;;9.73;6.28;;;6.10;99.90;;;;;;4985138;28;20209;-77
2023/04/05 08:35:00;;;;;;;7.50;5.78;;;7.40;99.90;;;;;;4999231;28;20279;-79
2023/04/05 08:37:27;;;;;;;6.88;4.38;;;8.30;99.90;;;;;;5001109;28;20232;-80
2023/04/05 08:39:54;;;;;;;10.63;4.75;;;8.70;99.90;;;;;;4990723;28;20648;-79
2023/04/05 08:42:30;;;;;;;9.05;3.22;;;8.80;99.90;;;;;;5007342;28;20211;-80
2023/04/05 08:45:02;;;;;;;9.05;5.03;;;9.20;99.90;;;;;;4994406;28;20210;-78
2023/04/05 08:47:29;;;;;;;5.85;3.70;;;12.30;99.90;;;;;;4996804;28;20267;-78
2023/04/05 08:49:57;;;;;;;9.65;3.15;;;16.10;99.90;;;;;;5006017;28;20212;-77
2023/04/05 08:52:24;;;;;;;8.88;4.07;;;16.90;93.70;;;;;;5011986;28;20240;-79
2023/04/05 08:54:54;;;;;;;10.35;3.63;;;16.80;90.70;;;;;;4985565;28;20223;-79
2023/04/05 08:57:29;;;;;;;12.23;4.28;;;16.20;92.00;;;;;;5008608;28;20208;-81
2023/04/05 09:00:00;;;;;;;4.10;3.70;;;14.50;96.20;;;;;;5005905;28;20206;-78
2023/04/05 09:02:28;;;;;;;8.90;5.13;;;15.50;97.80;;;;;;5005002;28;20209;-78
2023/04/05 09:04:56;;;;;;;8.73;4.05;;;15.60;95.50;;;;;;4997451;28;20209;-79
2023/04/05 09:07:25;;;;;;;5.70;3.60;;;15.40;95.50;;;;;;5005457;28;20212;-79
2023/04/05 09:09:53;;;;;;;4.78;3.60;;;15.10;92.90;;;;;;5009852;28;20392;-78
2023/04/05 09:12:24;;;;;;;5.03;4.25;;;13.80;99.20;;;;;;5010782;28;20559;-78
2023/04/05 09:14:52;;;;;;;7.05;4.20;;;13.70;99.30;;;;;;5010218;28;20386;-79
2023/04/05 09:17:21;;;;;;;7.15;3.83;;;13.20;97.60;;;;;;4992914;28;20213;-80
2023/04/05 09:19:49;;;;;;;4.15;3.38;;;13.10;98.50;;;;;;5007336;28;20248;-78
2023/04/05 09:22:17;;;;;;;8.70;4.18;;;12.40;99.90;;;;;;5005699;28;20206;-79
2023/04/05 09:24:45;;;;;;;8.80;3.58;;;12.30;99.90;;;;;;4992875;28;20219;-80
2023/04/05 09:27:15;;;;;;;6.07;3.72;;;12.50;99.90;;;;;;4982622;28;20245;-78
2023/04/05 09:29:47;;;;;;;5.90;3.42;;;12.30;99.90;;;;;;5012865;28;20210;-78
2023/04/05 09:32:15;;;;;;;4.65;3.08;;;12.30;99.90;;;;;;5001296;28;20295;-80
2023/04/05 09:34:42;;;;;;;6.72;2.95;;;12.60;99.90;;;;;;5004430;28;20256;-81
2023/04/05 09:37:15;;;;;;;7.47;3.60;;;12.40;99.90;;;;;;5007547;28;20253;-79
2023/04/05 09:39:43;;;;;;;6.75;3.55;;;12.00;99.90;;;;;;5004572;28;20214;-80
2023/04/05 09:42:14;;;;;;;5.47;3.17;;;12.00;99.90;;;;;;5006255;28;20389;-78
2023/04/05 09:45:00;;;;;;;7.55;3.72;;;11.90;99.90;;;;;;5010167;28;20208;-77
2023/04/05 09:47:33;;;;;;;9.07;5.00;;;12.10;99.90;;;;;;5000425;28;20331;-78
2023/04/05 09:50:04;;;;;;;30.00;11.48;;;12.30;99.90;;;;;;5005437;28;20209;-78
2023/04/05 09:52:32;;;;;;;9.20;5.05;;;12.40;99.90;;;;;;4988978;28;20468;-78
2023/04/05 09:55:03;;;;;;;9.98;3.97;;;12.60;99.90;;;;;;5002318;28;20221;-76
2023/04/05 09:57:34;;;;;;;9.40;4.57;;;12.20;99.90;;;;;;5001856;28;20280;-79
2023/04/05 10:00:01;;;;;;;7.55;4.88;;;11.40;99.90;;;;;;4999860;28;20203;-79
2023/04/05 10:02:36;;;;;;;3.47;3.10;;;10.80;99.90;;;;;;5010091;28;20210;-79
2023/04/05 10:05:12;;;;;;;4.43;4.03;;;10.50;99.90;;;;;;4994616;28;20514;-78
2023/04/05 10:07:40;;;;;;;3.50;3.15;;;10.20;99.90;;;;;;5005304;28;20197;-79
2023/04/05 10:10:09;;;;;;;5.70;2.90;;;10.20;99.90;;;;;;4995320;28;20253;-77
2023/04/05 10:12:38;;;;;;;5.40;4.47;;;10.50;99.90;;;;;;4996881;28;20234;-78
2023/04/05 10:15:06;;;;;;;5.00;3.38;;;10.30;99.90;;;;;;5000437;28;20578;-77
2023/04/05 10:17:48;;;;;;;5.10;3.72;;;10.50;99.90;;;;;;5011097;28;20215;-78
2023/04/05 10:20:17;;;;;;;5.60;3.35;;;10.60;99.90;;;;;;4996489;28;20207;-78
2023/04/05 10:22:56;;;;;;;7.30;3.60;;;10.90;99.90;;;;;;5004958;28;20208;-79
2023/04/05 10:25:52;;;;;;;4.88;4.13;;;10.80;99.90;;;;;;4991286;28;20212;-79
2023/04/05 10:28:29;;;;;;;8.77;4.88;;;10.50;99.90;;;;;;4995218;28;20712;-78
2023/04/05 10:31:11;;;;;;;11.43;6.35;;;10.50;99.90;;;;;;5005523;28;21425;-79
2023/04/05 10:33:46;;;;;;;4.80;4.20;;;10.60;99.90;;;;;;4984538;28;20238;-77
2023/04/05 10:36:36;;;;;;;12.90;5.53;;;10.50;99.90;;;;;;5009306;28;20206;-78
2023/04/05 10:39:26;;;;;;;6.30;5.00;;;10.60;99.90;;;;;;5007934;28;20457;-80
2023/04/05 10:41:58;;;;;;;6.97;4.97;;;10.00;99.90;;;;;;5001394;28;20506;-78
2023/04/05 10:44:26;;;;;;;8.05;5.18;;;10.00;99.90;;;;;;5008483;28;20209;-77
2023/04/05 10:46:55;;;;;;;7.78;5.07;;;9.90;99.90;;;;;;5006097;28;20401;-77
2023/04/05 10:49:36;;;;;;;6.93;4.05;;;9.70;99.90;;;;;;5016956;28;20206;-79
2023/04/05 10:52:04;;;;;;;6.65;5.85;;;10.00;99.90;;;;;;5005203;28;20226;-79
2023/04/05 10:54:35;;;;;;;8.23;4.32;;;10.50;99.90;;;;;;5003958;28;20458;-79
2023/04/05 10:57:05;;;;;;;5.75;4.65;;;11.00;99.90;;;;;;5010258;28;20208;-78
2023/04/05 10:59:41;;;;;;;7.57;6.90;;;11.50;99.90;;;;;;5012864;28;20237;-79
2023/04/05 11:02:09;;;;;;;5.43;3.72;;;11.80;99.90;;;;;;4996640;28;20211;-79
2023/04/05 11:04:39;;;;;;;4.55;3.95;;;11.50;99.90;;;;;;4995813;28;20251;-79
2023/04/05 11:07:18;;;;;;;17.50;4.60;;;11.20;99.90;;;;;;5003755;28;20208;-80
2023/04/05 11:10:03;;;;;;;4.95;3.70;;;10.20;99.90;;;;;;5020010;28;20192;-81
2023/04/05 11:12:45;;;;;;;5.03;3.90;;;10.10;99.90;;;;;;5029882;28;20251;-81
2023/04/05 11:15:31;;;;;;;9.82;5.10;;;10.20;99.90;;;;;;5012370;28;20183;-80
2023/04/05 11:18:10;;;;;;;8.25;5.68;;;10.40;99.90;;;;;;5013452;28;20299;-79
2023/04/05 11:20:50;;;;;;;6.07;4.60;;;10.90;99.90;;;;;;4999613;28;20238;-79
2023/04/05 11:23:19;;;;;;;5.97;4.15;;;10.20;99.90;;;;;;5008981;28;20206;-79
2023/04/05 11:26:05;;;;;;;6.45;4.00;;;10.00;99.90;;;;;;4998059;28;20212;-79
2023/04/05 11:28:38;;;;;;;12.60;5.18;;;10.20;99.90;;;;;;5010617;28;20210;-78
2023/04/05 11:31:17;;;;;;;3.50;2.65;;;9.90;99.90;;;;;;5012453;28;20226;-82
2023/04/05 11:33:44;;;;;;;3.20;2.85;;;9.00;99.90;;;;;;5010807;28;20227;-80
2023/04/05 11:36:35;;;;;;;6.93;3.25;;;8.30;99.90;;;;;;5010481;28;20205;-79
2023/04/05 11:39:17;;;;;;;5.97;3.50;;;7.90;99.90;;;;;;5012293;28;20204;-79
2023/04/05 11:41:57;;;;;;;6.53;3.70;;;7.70;99.90;;;;;;5014076;28;20209;-79
2023/04/05 11:44:25;;;;;;;7.63;3.35;;;7.70;99.90;;;;;;5006791;28;20209;-79
2023/04/05 11:46:53;;;;;;;7.55;3.50;;;7.40;99.90;;;;;;5006601;28;20206;-79
2023/04/05 11:49:24;;;;;;;4.20;2.97;;;7.30;99.90;;;;;;5003593;28;20236;-81
2023/04/05 11:51:52;;;;;;;8.82;3.65;;;7.40;99.90;;;;;;4986074;28;20256;-80
2023/04/05 11:54:32;;;;;;;3.92;3.42;;;7.40;99.90;;;;;;5005080;28;20206;-79
2023/04/05 11:57:00;;;;;;;6.05;4.10;;;7.60;99.90;;;;;;4995325;28;20213;-79
2023/04/05 11:59:30;;;;;;;3.63;2.90;;;8.10;99.90;;;;;;5005452;28;20205;-79
2023/04/05 12:02:06;;;;;;;4.55;3.10;;;8.10;99.90;;;;;;5004532;28;20210;-82
2023/04/05 12:04:37;;;;;;;5.25;3.20;;;8.20;99.90;;;;;;5003645;28;20205;-79
2023/04/05 12:07:25;;;;;;;5.13;3.13;;;8.10;99.90;;;;;;5018237;28;20355;-79
2023/04/05 12:10:14;;;;;;;6.45;3.10;;;8.20;99.90;;;;;;5003904;28;20202;-79
2023/04/05 12:12:43;;;;;;;4.65;3.30;;;8.30;99.90;;;;;;4999154;28;20409;-80
2023/04/05 12:15:17;;;;;;;3.03;2.78;;;8.20;99.90;;;;;;5009955;28;20205;-80
2023/04/05 12:17:49;;;;;;;4.05;3.60;;;8.20;99.90;;;;;;4984636;28;20213;-78
2023/04/05 12:20:22;;;;;;;4.82;3.47;;;8.10;99.90;;;;;;5010811;28;20205;-79
2023/04/05 12:22:52;;;;;;;5.88;2.75;;;8.20;99.90;;;;;;4999327;28;20274;-82
2023/04/05 12:25:19;;;;;;;4.57;3.50;;;7.50;99.90;;;;;;4999531;28;20256;-82
2023/04/05 12:27:46;;;;;;;4.60;3.70;;;7.30;99.90;;;;;;5007703;28;20234;-79
2023/04/05 12:30:15;;;;;;;5.05;2.85;;;7.00;99.90;;;;;;5013190;28;20202;-81
2023/04/05 12:32:50;;;;;;;4.47;3.60;;;6.60;99.90;;;;;;4999974;28;20240;-79
2023/04/05 12:35:19;;;;;;;6.05;3.88;;;5.80;99.90;;;;;;4992157;28;20295;-78
2023/04/05 12:37:48;;;;;;;5.05;3.42;;;5.80;99.90;;;;;;5004103;28;20210;-80
2023/04/05 12:40:20;;;;;;;6.00;4.30;;;6.00;99.90;;;;;;5002436;28;20371;-81
2023/04/05 12:42:50;;;;;;;4.05;3.22;;;6.40;99.90;;;;;;5000463;28;20205;-79
2023/04/05 12:45:17;;;;;;;6.43;4.25;;;6.90;99.90;;;;;;4978596;28;20214;-79
2023/04/05 12:48:02;;;;;;;8.02;3.40;;;7.20;99.90;;;;;;5005666;28;20251;-79
2023/04/05 12:50:30;;;;;;;6.15;3.30;;;7.40;99.90;;;;;;5000228;28;20199;-81
2023/04/05 12:53:07;;;;;;;5.45;3.50;;;7.30;99.90;;;;;;5002663;28;20272;-81
2023/04/05 12:55:42;;;;;;;4.32;3.30;;;7.40;99.90;;;;;;5010792;28;20212;-78